sensor_id;sensor_type;location;lat;lon;timestamp;pressure;altitude;pressure_sealevel;temperature;humidity
11680;BME280;5896;42.686;23.142;2024-03-25T00:00:41;91887.84;;;1.68;91.47
11680;BME280;5896;42.686;23.142;2024-03-25T00:03:06;91879.66;;;1.73;91.83
11680;BME280;5896;42.686;23.142;2024-03-25T00:05:31;91868.28;;;1.68;92.63
11680;BME280;5896;42.686;23.142;2024-03-25T00:07:57;91871.44;;;1.77;92.37
11680;BME280;5896;42.686;23.142;2024-03-25T00:10:23;91865.38;;;1.78;92.26
11680;BME280;5896;42.686;23.142;2024-03-25T00:12:49;91864.78;;;1.76;92.30
11680;BME280;5896;42.686;23.142;2024-03-25T00:15:18;91861.47;;;1.89;92.30
11680;BME280;5896;42.686;23.142;2024-03-25T00:17:45;91849.16;;;1.79;92.18
11680;BME280;5896;42.686;23.142;2024-03-25T00:20:12;91842.47;;;1.85;91.78
11680;BME280;5896;42.686;23.142;2024-03-25T00:22:38;91831.53;;;1.84;92.36
11680;BME280;5896;42.686;23.142;2024-03-25T00:25:04;91823.91;;;1.84;92.26
11680;BME280;5896;42.686;23.142;2024-03-25T00:27:29;91834.06;;;1.71;93.29
11680;BME280;5896;42.686;23.142;2024-03-25T00:29:55;91831.72;;;1.96;93.24
11680;BME280;5896;42.686;23.142;2024-03-25T00:32:21;91845.06;;;2.05;92.56
11680;BME280;5896;42.686;23.142;2024-03-25T00:34:46;91839.97;;;1.98;92.77
11680;BME280;5896;42.686;23.142;2024-03-25T00:37:12;91846.81;;;2.04;92.53
11680;BME280;5896;42.686;23.142;2024-03-25T00:39:37;91844.88;;;2.13;92.15
11680;BME280;5896;42.686;23.142;2024-03-25T00:42:03;91841.94;;;2.03;91.62
11680;BME280;5896;42.686;23.142;2024-03-25T00:44:28;91847.41;;;1.86;91.36
11680;BME280;5896;42.686;23.142;2024-03-25T00:46:54;91856.94;;;1.78;92.62
11680;BME280;5896;42.686;23.142;2024-03-25T00:49:20;91855.00;;;1.80;92.63
11680;BME280;5896;42.686;23.142;2024-03-25T00:51:46;91848.94;;;1.81;92.76
11680;BME280;5896;42.686;23.142;2024-03-25T00:54:12;91831.34;;;1.86;91.67
11680;BME280;5896;42.686;23.142;2024-03-25T00:56:37;91828.00;;;1.85;92.36
11680;BME280;5896;42.686;23.142;2024-03-25T00:59:03;91830.94;;;1.89;92.18
11680;BME280;5896;42.686;23.142;2024-03-25T01:01:29;91827.44;;;1.97;92.04
11680;BME280;5896;42.686;23.142;2024-03-25T01:03:55;91811.00;;;1.99;92.44
11680;BME280;5896;42.686;23.142;2024-03-25T01:06:20;91806.50;;;2.01;91.91
11680;BME280;5896;42.686;23.142;2024-03-25T01:08:46;91785.72;;;2.04;92.38
11680;BME280;5896;42.686;23.142;2024-03-25T01:11:11;91785.16;;;2.15;91.47
11680;BME280;5896;42.686;23.142;2024-03-25T01:13:36;91790.25;;;2.22;91.18
11680;BME280;5896;42.686;23.142;2024-03-25T01:16:02;91785.91;;;2.23;91.38
11680;BME280;5896;42.686;23.142;2024-03-25T01:18:28;91788.06;;;2.26;91.43
11680;BME280;5896;42.686;23.142;2024-03-25T01:20:53;91782.38;;;2.37;91.27
11680;BME280;5896;42.686;23.142;2024-03-25T01:23:19;91798.44;;;2.31;91.80
11680;BME280;5896;42.686;23.142;2024-03-25T01:25:45;91793.13;;;2.46;91.17
11680;BME280;5896;42.686;23.142;2024-03-25T01:28:10;91797.44;;;2.52;90.42
11680;BME280;5896;42.686;23.142;2024-03-25T01:30:36;91792.16;;;2.53;89.54
11680;BME280;5896;42.686;23.142;2024-03-25T01:33:04;91795.69;;;2.52;90.26
11680;BME280;5896;42.686;23.142;2024-03-25T01:35:30;91795.28;;;2.42;91.96
11680;BME280;5896;42.686;23.142;2024-03-25T01:37:56;91813.53;;;2.32;92.98
11680;BME280;5896;42.686;23.142;2024-03-25T01:40:21;91809.00;;;2.48;90.37
11680;BME280;5896;42.686;23.142;2024-03-25T01:43:01;91807.25;;;2.55;91.43
11680;BME280;5896;42.686;23.142;2024-03-25T01:45:29;91802.53;;;2.52;91.44
11680;BME280;5896;42.686;23.142;2024-03-25T01:47:57;91812.69;;;2.65;89.67
11680;BME280;5896;42.686;23.142;2024-03-25T01:50:23;91819.00;;;2.62;90.00
11680;BME280;5896;42.686;23.142;2024-03-25T01:52:50;91829.59;;;2.39;90.71
11680;BME280;5896;42.686;23.142;2024-03-25T01:55:19;91828.22;;;2.30;92.54
11680;BME280;5896;42.686;23.142;2024-03-25T01:57:46;91838.59;;;2.49;92.97
11680;BME280;5896;42.686;23.142;2024-03-25T02:00:13;91843.88;;;2.54;91.32
11680;BME280;5896;42.686;23.142;2024-03-25T02:02:40;91848.56;;;2.57;90.20
11680;BME280;5896;42.686;23.142;2024-03-25T02:05:14;91851.13;;;2.30;91.21
11680;BME280;5896;42.686;23.142;2024-03-25T02:07:40;91851.34;;;2.35;91.44
11680;BME280;5896;42.686;23.142;2024-03-25T02:10:07;91846.06;;;2.24;91.50
11680;BME280;5896;42.686;23.142;2024-03-25T02:12:39;91850.75;;;2.13;91.17
11680;BME280;5896;42.686;23.142;2024-03-25T02:15:05;91847.59;;;2.11;91.22
11680;BME280;5896;42.686;23.142;2024-03-25T02:17:31;91852.13;;;2.09;91.40
11680;BME280;5896;42.686;23.142;2024-03-25T02:19:56;91840.75;;;1.99;90.91
11680;BME280;5896;42.686;23.142;2024-03-25T02:22:22;91842.31;;;1.86;92.01
11680;BME280;5896;42.686;23.142;2024-03-25T02:24:49;91846.19;;;1.76;91.51
11680;BME280;5896;42.686;23.142;2024-03-25T02:27:16;91849.31;;;1.64;92.42
11680;BME280;5896;42.686;23.142;2024-03-25T02:29:42;91855.59;;;1.75;91.82
11680;BME280;5896;42.686;23.142;2024-03-25T02:32:08;91842.28;;;1.73;91.00
11680;BME280;5896;42.686;23.142;2024-03-25T02:34:39;91856.56;;;1.81;89.83
11680;BME280;5896;42.686;23.142;2024-03-25T02:37:06;91843.63;;;1.69;90.80
11680;BME280;5896;42.686;23.142;2024-03-25T02:39:33;91850.44;;;1.55;90.25
11680;BME280;5896;42.686;23.142;2024-03-25T02:41:59;91849.13;;;1.73;89.45
11680;BME280;5896;42.686;23.142;2024-03-25T02:44:24;91853.06;;;1.75;89.85
11680;BME280;5896;42.686;23.142;2024-03-25T02:46:50;91853.81;;;1.69;89.17
11680;BME280;5896;42.686;23.142;2024-03-25T02:49:16;91869.66;;;1.78;88.69
11680;BME280;5896;42.686;23.142;2024-03-25T02:51:41;91871.06;;;1.80;88.81
11680;BME280;5896;42.686;23.142;2024-03-25T02:54:06;91875.56;;;1.78;88.47
11680;BME280;5896;42.686;23.142;2024-03-25T02:56:37;91883.19;;;1.78;87.64
11680;BME280;5896;42.686;23.142;2024-03-25T02:59:02;91883.19;;;1.78;87.41
11680;BME280;5896;42.686;23.142;2024-03-25T03:01:28;91877.88;;;1.73;88.71
11680;BME280;5896;42.686;23.142;2024-03-25T03:03:53;91883.19;;;1.78;88.21
11680;BME280;5896;42.686;23.142;2024-03-25T03:06:19;91873.56;;;1.74;88.64
11680;BME280;5896;42.686;23.142;2024-03-25T03:08:44;91884.72;;;1.73;88.22
11680;BME280;5896;42.686;23.142;2024-03-25T03:11:10;91872.59;;;1.68;89.31
11680;BME280;5896;42.686;23.142;2024-03-25T03:13:35;91876.69;;;1.69;88.44
11680;BME280;5896;42.686;23.142;2024-03-25T03:16:01;91861.88;;;1.79;87.26
11680;BME280;5896;42.686;23.142;2024-03-25T03:18:27;91873.81;;;1.79;87.20
11680;BME280;5896;42.686;23.142;2024-03-25T03:20:53;91875.16;;;1.75;87.08
11680;BME280;5896;42.686;23.142;2024-03-25T03:23:21;91891.22;;;1.75;87.48
11680;BME280;5896;42.686;23.142;2024-03-25T03:25:47;91896.28;;;1.75;87.13
11680;BME280;5896;42.686;23.142;2024-03-25T03:28:12;91892.34;;;1.66;87.92
11680;BME280;5896;42.686;23.142;2024-03-25T03:30:37;91888.25;;;1.72;87.25
11680;BME280;5896;42.686;23.142;2024-03-25T03:33:03;91890.41;;;1.68;86.13
11680;BME280;5896;42.686;23.142;2024-03-25T03:35:28;91898.47;;;1.78;84.82
11680;BME280;5896;42.686;23.142;2024-03-25T03:37:54;91907.28;;;1.82;84.51
11680;BME280;5896;42.686;23.142;2024-03-25T03:40:19;91910.22;;;1.86;85.25
11680;BME280;5896;42.686;23.142;2024-03-25T03:42:44;91914.31;;;1.80;85.30
11680;BME280;5896;42.686;23.142;2024-03-25T03:45:10;91917.03;;;1.85;85.56
11680;BME280;5896;42.686;23.142;2024-03-25T03:47:35;91911.38;;;1.83;85.39
11680;BME280;5896;42.686;23.142;2024-03-25T03:50:01;91907.06;;;1.70;86.34
11680;BME280;5896;42.686;23.142;2024-03-25T03:52:26;91897.66;;;1.71;86.93
11680;BME280;5896;42.686;23.142;2024-03-25T03:54:52;91912.13;;;1.70;86.17
11680;BME280;5896;42.686;23.142;2024-03-25T03:57:17;91927.78;;;1.67;86.26
11680;BME280;5896;42.686;23.142;2024-03-25T03:59:43;91946.34;;;1.68;86.74
11680;BME280;5896;42.686;23.142;2024-03-25T04:02:08;91947.16;;;1.75;85.70
11680;BME280;5896;42.686;23.142;2024-03-25T04:04:33;91952.63;;;1.72;86.74
11680;BME280;5896;42.686;23.142;2024-03-25T04:07:01;91950.88;;;1.73;85.81
11680;BME280;5896;42.686;23.142;2024-03-25T04:09:27;91943.97;;;1.66;87.16
11680;BME280;5896;42.686;23.142;2024-03-25T04:11:54;91928.56;;;1.68;84.80
11680;BME280;5896;42.686;23.142;2024-03-25T04:14:20;91938.25;;;1.44;86.14
11680;BME280;5896;42.686;23.142;2024-03-25T04:16:45;91943.78;;;1.61;86.18
11680;BME280;5896;42.686;23.142;2024-03-25T04:19:12;91933.41;;;1.63;84.99
11680;BME280;5896;42.686;23.142;2024-03-25T04:21:38;91955.09;;;1.59;85.79
11680;BME280;5896;42.686;23.142;2024-03-25T04:24:04;91956.28;;;1.63;85.78
11680;BME280;5896;42.686;23.142;2024-03-25T04:26:30;91952.56;;;1.59;86.08
11680;BME280;5896;42.686;23.142;2024-03-25T04:28:55;91949.81;;;1.54;84.66
11680;BME280;5896;42.686;23.142;2024-03-25T04:31:21;91971.13;;;1.53;86.30
11680;BME280;5896;42.686;23.142;2024-03-25T04:33:47;91979.59;;;1.66;85.67
11680;BME280;5896;42.686;23.142;2024-03-25T04:36:12;91985.09;;;1.70;84.39
11680;BME280;5896;42.686;23.142;2024-03-25T04:38:38;91998.63;;;1.70;84.77
11680;BME280;5896;42.686;23.142;2024-03-25T04:41:04;91978.44;;;1.69;84.48
11680;BME280;5896;42.686;23.142;2024-03-25T04:43:29;91998.41;;;1.72;84.66
11680;BME280;5896;42.686;23.142;2024-03-25T04:45:55;92004.25;;;1.66;84.35
11680;BME280;5896;42.686;23.142;2024-03-25T04:48:20;92003.09;;;1.68;83.68
11680;BME280;5896;42.686;23.142;2024-03-25T04:50:46;92015.06;;;1.75;83.85
11680;BME280;5896;42.686;23.142;2024-03-25T04:53:11;92007.44;;;1.81;83.96
11680;BME280;5896;42.686;23.142;2024-03-25T04:55:37;92011.34;;;1.77;84.87
11680;BME280;5896;42.686;23.142;2024-03-25T04:58:02;92000.81;;;1.87;84.69
11680;BME280;5896;42.686;23.142;2024-03-25T05:00:28;92003.16;;;1.88;82.62
11680;BME280;5896;42.686;23.142;2024-03-25T05:02:53;92009.03;;;1.82;83.32
11680;BME280;5896;42.686;23.142;2024-03-25T05:05:19;92014.66;;;1.78;84.27
11680;BME280;5896;42.686;23.142;2024-03-25T05:07:44;92005.13;;;1.86;84.14
11680;BME280;5896;42.686;23.142;2024-03-25T05:10:09;92014.94;;;1.96;84.60
11680;BME280;5896;42.686;23.142;2024-03-25T05:12:35;92006.91;;;1.92;83.42
11680;BME280;5896;42.686;23.142;2024-03-25T05:15:00;92024.66;;;1.79;83.76
11680;BME280;5896;42.686;23.142;2024-03-25T05:17:26;92012.22;;;1.98;83.03
11680;BME280;5896;42.686;23.142;2024-03-25T05:19:51;92018.81;;;1.85;82.73
11680;BME280;5896;42.686;23.142;2024-03-25T05:22:17;92016.09;;;1.87;81.89
11680;BME280;5896;42.686;23.142;2024-03-25T05:24:42;92024.28;;;1.82;82.75
11680;BME280;5896;42.686;23.142;2024-03-25T05:27:07;92035.25;;;1.83;81.79
11680;BME280;5896;42.686;23.142;2024-03-25T05:29:33;92038.75;;;1.75;83.74
11680;BME280;5896;42.686;23.142;2024-03-25T05:32:00;92039.44;;;1.97;81.48
11680;BME280;5896;42.686;23.142;2024-03-25T05:34:27;92027.88;;;1.94;82.20
11680;BME280;5896;42.686;23.142;2024-03-25T05:36:53;92046.66;;;1.93;81.33
11680;BME280;5896;42.686;23.142;2024-03-25T05:39:18;92041.94;;;1.90;80.68
11680;BME280;5896;42.686;23.142;2024-03-25T05:41:45;92049.19;;;1.93;81.84
11680;BME280;5896;42.686;23.142;2024-03-25T05:44:11;92054.44;;;1.85;81.87
11680;BME280;5896;42.686;23.142;2024-03-25T05:46:36;92062.34;;;2.04;82.81
11680;BME280;5896;42.686;23.142;2024-03-25T05:49:04;92063.13;;;2.04;81.25
11680;BME280;5896;42.686;23.142;2024-03-25T05:51:30;92078.88;;;2.21;81.48
11680;BME280;5896;42.686;23.142;2024-03-25T05:53:56;92068.31;;;2.24;81.35
11680;BME280;5896;42.686;23.142;2024-03-25T05:56:22;92079.81;;;2.13;81.38
11680;BME280;5896;42.686;23.142;2024-03-25T05:58:47;92074.91;;;2.12;80.24
11680;BME280;5896;42.686;23.142;2024-03-25T06:01:13;92081.22;;;2.23;81.49
11680;BME280;5896;42.686;23.142;2024-03-25T06:03:38;92085.13;;;2.18;81.01
11680;BME280;5896;42.686;23.142;2024-03-25T06:06:04;92086.88;;;2.18;80.17
11680;BME280;5896;42.686;23.142;2024-03-25T06:08:29;92082.00;;;2.16;79.99
11680;BME280;5896;42.686;23.142;2024-03-25T06:11:00;92100.22;;;2.20;79.86
11680;BME280;5896;42.686;23.142;2024-03-25T06:13:26;92102.16;;;2.18;79.74
11680;BME280;5896;42.686;23.142;2024-03-25T06:15:51;92089.75;;;2.02;80.99
11680;BME280;5896;42.686;23.142;2024-03-25T06:18:17;92100.44;;;2.25;79.82
11680;BME280;5896;42.686;23.142;2024-03-25T06:20:42;92098.53;;;2.40;80.15
11680;BME280;5896;42.686;23.142;2024-03-25T06:23:07;92105.00;;;2.50;79.95
11680;BME280;5896;42.686;23.142;2024-03-25T06:25:32;92098.41;;;2.68;78.27
11680;BME280;5896;42.686;23.142;2024-03-25T06:27:58;92099.38;;;2.67;77.76
11680;BME280;5896;42.686;23.142;2024-03-25T06:30:25;92106.06;;;2.75;78.63
11680;BME280;5896;42.686;23.142;2024-03-25T06:33:09;92115.56;;;3.21;77.79
11680;BME280;5896;42.686;23.142;2024-03-25T06:35:53;92105.16;;;3.36;76.59
11680;BME280;5896;42.686;23.142;2024-03-25T06:38:18;92117.16;;;3.49;76.07
11680;BME280;5896;42.686;23.142;2024-03-25T06:40:45;92122.25;;;3.35;75.73
11680;BME280;5896;42.686;23.142;2024-03-25T06:43:11;92128.72;;;3.38;76.43
11680;BME280;5896;42.686;23.142;2024-03-25T06:45:36;92131.66;;;3.35;77.51
11680;BME280;5896;42.686;23.142;2024-03-25T06:48:01;92128.50;;;3.39;76.58
11680;BME280;5896;42.686;23.142;2024-03-25T06:50:27;92133.63;;;3.39;75.82
11680;BME280;5896;42.686;23.142;2024-03-25T06:52:52;92134.03;;;3.30;75.98
11680;BME280;5896;42.686;23.142;2024-03-25T06:55:18;92137.91;;;3.32;76.20
11680;BME280;5896;42.686;23.142;2024-03-25T06:57:48;92139.09;;;3.23;76.09
11680;BME280;5896;42.686;23.142;2024-03-25T07:00:13;92125.75;;;3.14;76.96
11680;BME280;5896;42.686;23.142;2024-03-25T07:02:39;92134.41;;;3.33;76.44
11680;BME280;5896;42.686;23.142;2024-03-25T07:05:05;92135.34;;;3.26;76.30
11680;BME280;5896;42.686;23.142;2024-03-25T07:07:31;92140.28;;;3.27;76.09
11680;BME280;5896;42.686;23.142;2024-03-25T07:09:57;92132.81;;;3.32;75.27
11680;BME280;5896;42.686;23.142;2024-03-25T07:12:22;92143.44;;;3.42;76.00
11680;BME280;5896;42.686;23.142;2024-03-25T07:14:48;92153.06;;;3.54;73.68
11680;BME280;5896;42.686;23.142;2024-03-25T07:17:13;92151.47;;;3.59;74.77
11680;BME280;5896;42.686;23.142;2024-03-25T07:19:38;92160.09;;;3.78;73.87
11680;BME280;5896;42.686;23.142;2024-03-25T07:22:04;92163.44;;;3.65;73.93
11680;BME280;5896;42.686;23.142;2024-03-25T07:24:29;92163.66;;;3.57;74.04
11680;BME280;5896;42.686;23.142;2024-03-25T07:26:54;92161.47;;;3.74;72.67
11680;BME280;5896;42.686;23.142;2024-03-25T07:29:20;92160.69;;;3.67;71.46
11680;BME280;5896;42.686;23.142;2024-03-25T07:31:45;92163.44;;;3.59;72.43
11680;BME280;5896;42.686;23.142;2024-03-25T07:34:10;92157.97;;;3.62;72.50
11680;BME280;5896;42.686;23.142;2024-03-25T07:36:37;92162.84;;;3.97;74.27
11680;BME280;5896;42.686;23.142;2024-03-25T07:39:04;92154.97;;;4.18;70.52
11680;BME280;5896;42.686;23.142;2024-03-25T07:41:31;92161.63;;;4.19;71.00
11680;BME280;5896;42.686;23.142;2024-03-25T07:43:56;92155.16;;;4.17;71.08
11680;BME280;5896;42.686;23.142;2024-03-25T07:46:22;92161.22;;;4.22;70.02
11680;BME280;5896;42.686;23.142;2024-03-25T07:48:47;92166.53;;;4.27;70.74
11680;BME280;5896;42.686;23.142;2024-03-25T07:51:12;92156.84;;;4.43;69.32
11680;BME280;5896;42.686;23.142;2024-03-25T07:53:38;92159.16;;;4.64;70.25
11680;BME280;5896;42.686;23.142;2024-03-25T07:56:04;92166.09;;;4.95;69.12
11680;BME280;5896;42.686;23.142;2024-03-25T07:58:30;92171.78;;;5.04;67.43
11680;BME280;5896;42.686;23.142;2024-03-25T08:00:55;92165.97;;;5.15;67.56
11680;BME280;5896;42.686;23.142;2024-03-25T08:03:21;92175.06;;;5.11;65.35
11680;BME280;5896;42.686;23.142;2024-03-25T08:05:47;92185.44;;;4.78;66.80
11680;BME280;5896;42.686;23.142;2024-03-25T08:08:12;92180.94;;;5.18;70.11
11680;BME280;5896;42.686;23.142;2024-03-25T08:10:38;92187.13;;;5.35;65.89
11680;BME280;5896;42.686;23.142;2024-03-25T08:13:04;92183.06;;;5.84;66.24
11680;BME280;5896;42.686;23.142;2024-03-25T08:15:29;92189.88;;;5.97;65.75
11680;BME280;5896;42.686;23.142;2024-03-25T08:17:54;92196.88;;;5.52;65.59
11680;BME280;5896;42.686;23.142;2024-03-25T08:20:20;92203.66;;;5.01;68.05
11680;BME280;5896;42.686;23.142;2024-03-25T08:22:45;92214.81;;;5.07;65.44
11680;BME280;5896;42.686;23.142;2024-03-25T08:25:12;92207.22;;;5.32;65.61
11680;BME280;5896;42.686;23.142;2024-03-25T08:27:37;92214.41;;;5.48;65.21
11680;BME280;5896;42.686;23.142;2024-03-25T08:30:03;92216.09;;;5.29;64.29
11680;BME280;5896;42.686;23.142;2024-03-25T08:32:28;92223.16;;;5.34;64.93
11680;BME280;5896;42.686;23.142;2024-03-25T08:34:54;92226.31;;;5.29;64.93
11680;BME280;5896;42.686;23.142;2024-03-25T08:37:20;92215.31;;;5.99;63.15
11680;BME280;5896;42.686;23.142;2024-03-25T08:39:45;92218.91;;;5.84;65.01
11680;BME280;5896;42.686;23.142;2024-03-25T08:42:12;92212.53;;;5.69;61.52
11680;BME280;5896;42.686;23.142;2024-03-25T08:44:37;92211.41;;;5.83;62.29
11680;BME280;5896;42.686;23.142;2024-03-25T08:47:02;92227.44;;;5.47;64.37
11680;BME280;5896;42.686;23.142;2024-03-25T08:49:28;92213.38;;;5.24;65.43
11680;BME280;5896;42.686;23.142;2024-03-25T08:51:53;92227.28;;;4.90;65.19
11680;BME280;5896;42.686;23.142;2024-03-25T08:54:18;92225.28;;;4.99;65.99
11680;BME280;5896;42.686;23.142;2024-03-25T08:56:44;92230.78;;;5.02;65.18
11680;BME280;5896;42.686;23.142;2024-03-25T08:59:10;92233.56;;;5.01;64.61
11680;BME280;5896;42.686;23.142;2024-03-25T09:01:35;92237.91;;;4.87;65.02
11680;BME280;5896;42.686;23.142;2024-03-25T09:04:01;92230.41;;;4.99;64.81
11680;BME280;5896;42.686;23.142;2024-03-25T09:06:27;92223.88;;;5.09;64.81
11680;BME280;5896;42.686;23.142;2024-03-25T09:08:53;92226.81;;;5.06;64.71
11680;BME280;5896;42.686;23.142;2024-03-25T09:11:37;92232.91;;;5.12;66.57
11680;BME280;5896;42.686;23.142;2024-03-25T09:14:02;92226.78;;;5.20;64.25
11680;BME280;5896;42.686;23.142;2024-03-25T09:16:29;92236.41;;;5.18;62.18
11680;BME280;5896;42.686;23.142;2024-03-25T09:18:55;92245.88;;;5.17;62.16
11680;BME280;5896;42.686;23.142;2024-03-25T09:21:20;92232.41;;;4.83;63.54
11680;BME280;5896;42.686;23.142;2024-03-25T09:23:46;92240.53;;;5.19;65.11
11680;BME280;5896;42.686;23.142;2024-03-25T09:26:13;92233.75;;;5.37;63.29
11680;BME280;5896;42.686;23.142;2024-03-25T09:28:38;92226.28;;;5.43;63.68
11680;BME280;5896;42.686;23.142;2024-03-25T09:31:04;92241.38;;;5.82;65.70
11680;BME280;5896;42.686;23.142;2024-03-25T09:33:31;92243.91;;;5.89;63.35
11680;BME280;5896;42.686;23.142;2024-03-25T09:35:56;92232.66;;;5.90;62.22
11680;BME280;5896;42.686;23.142;2024-03-25T09:38:21;92240.84;;;5.74;61.64
11680;BME280;5896;42.686;23.142;2024-03-25T09:40:47;92242.53;;;5.86;62.74
11680;BME280;5896;42.686;23.142;2024-03-25T09:43:17;92242.06;;;6.03;61.04
11680;BME280;5896;42.686;23.142;2024-03-25T09:45:47;92240.72;;;6.25;60.28
11680;BME280;5896;42.686;23.142;2024-03-25T09:48:15;92230.00;;;5.72;60.53
11680;BME280;5896;42.686;23.142;2024-03-25T09:50:42;92229.59;;;5.50;61.88
11680;BME280;5896;42.686;23.142;2024-03-25T09:53:08;92238.06;;;5.75;60.74
11680;BME280;5896;42.686;23.142;2024-03-25T09:55:33;92232.88;;;5.89;59.77
11680;BME280;5896;42.686;23.142;2024-03-25T09:57:59;92233.75;;;6.07;58.91
11680;BME280;5896;42.686;23.142;2024-03-25T10:00:24;92243.75;;;5.84;60.73
11680;BME280;5896;42.686;23.142;2024-03-25T10:02:50;92238.09;;;6.07;60.31
11680;BME280;5896;42.686;23.142;2024-03-25T10:05:15;92232.66;;;6.40;57.98
11680;BME280;5896;42.686;23.142;2024-03-25T10:07:41;92238.50;;;6.72;56.79
11680;BME280;5896;42.686;23.142;2024-03-25T10:10:07;92227.63;;;7.25;57.00
11680;BME280;5896;42.686;23.142;2024-03-25T10:12:36;92235.97;;;7.39;52.79
11680;BME280;5896;42.686;23.142;2024-03-25T10:15:01;92240.88;;;7.41;55.42
11680;BME280;5896;42.686;23.142;2024-03-25T10:17:27;92241.63;;;6.93;54.90
11680;BME280;5896;42.686;23.142;2024-03-25T10:19:56;92235.34;;;7.07;52.77
11680;BME280;5896;42.686;23.142;2024-03-25T10:22:21;92245.13;;;7.17;53.91
11680;BME280;5896;42.686;23.142;2024-03-25T10:24:47;92239.25;;;7.28;53.53
11680;BME280;5896;42.686;23.142;2024-03-25T10:27:20;92236.56;;;7.95;52.29
11680;BME280;5896;42.686;23.142;2024-03-25T10:29:47;92234.53;;;8.50;51.95
11680;BME280;5896;42.686;23.142;2024-03-25T10:32:15;92241.00;;;7.46;50.12
11680;BME280;5896;42.686;23.142;2024-03-25T10:34:40;92239.50;;;6.90;52.90
11680;BME280;5896;42.686;23.142;2024-03-25T10:37:09;92229.91;;;7.64;54.10
11680;BME280;5896;42.686;23.142;2024-03-25T10:39:50;92234.84;;;8.19;47.55
11680;BME280;5896;42.686;23.142;2024-03-25T10:42:18;92244.13;;;7.78;50.75
11680;BME280;5896;42.686;23.142;2024-03-25T10:44:44;92232.34;;;7.10;53.13
11680;BME280;5896;42.686;23.142;2024-03-25T10:47:15;92250.53;;;6.90;52.81
11680;BME280;5896;42.686;23.142;2024-03-25T10:49:50;92258.13;;;6.60;55.10
11680;BME280;5896;42.686;23.142;2024-03-25T10:52:17;92245.66;;;6.45;55.71
11680;BME280;5896;42.686;23.142;2024-03-25T10:54:46;92245.00;;;7.23;55.50
11680;BME280;5896;42.686;23.142;2024-03-25T10:57:13;92250.38;;;7.70;54.54
11680;BME280;5896;42.686;23.142;2024-03-25T10:59:39;92247.75;;;7.59;53.05
11680;BME280;5896;42.686;23.142;2024-03-25T11:02:07;92253.00;;;7.15;50.78
11680;BME280;5896;42.686;23.142;2024-03-25T11:04:33;92245.84;;;7.05;51.23
11680;BME280;5896;42.686;23.142;2024-03-25T11:07:15;92255.16;;;8.09;51.37
11680;BME280;5896;42.686;23.142;2024-03-25T11:09:41;92243.94;;;8.03;49.76
11680;BME280;5896;42.686;23.142;2024-03-25T11:12:10;92245.31;;;8.05;50.85
11680;BME280;5896;42.686;23.142;2024-03-25T11:14:35;92251.19;;;7.52;49.76
11680;BME280;5896;42.686;23.142;2024-03-25T11:17:01;92275.25;;;6.85;54.94
11680;BME280;5896;42.686;23.142;2024-03-25T11:19:29;92273.69;;;6.40;60.80
11680;BME280;5896;42.686;23.142;2024-03-25T11:22:06;92264.81;;;5.79;64.13
11680;BME280;5896;42.686;23.142;2024-03-25T11:24:32;92271.78;;;5.72;67.12
11680;BME280;5896;42.686;23.142;2024-03-25T11:27:00;92268.47;;;5.65;67.38
11680;BME280;5896;42.686;23.142;2024-03-25T11:29:26;92271.69;;;5.54;66.43
11680;BME280;5896;42.686;23.142;2024-03-25T11:31:53;92276.06;;;5.78;65.13
11680;BME280;5896;42.686;23.142;2024-03-25T11:34:18;92262.22;;;5.86;63.18
11680;BME280;5896;42.686;23.142;2024-03-25T11:36:44;92263.84;;;6.12;62.01
11680;BME280;5896;42.686;23.142;2024-03-25T11:39:09;92266.94;;;6.21;59.06
11680;BME280;5896;42.686;23.142;2024-03-25T11:41:44;92277.72;;;6.04;58.70
11680;BME280;5896;42.686;23.142;2024-03-25T11:44:11;92278.75;;;5.97;59.86
11680;BME280;5896;42.686;23.142;2024-03-25T11:46:40;92279.75;;;5.89;58.85
11680;BME280;5896;42.686;23.142;2024-03-25T11:49:06;92273.88;;;5.50;57.71
11680;BME280;5896;42.686;23.142;2024-03-25T11:51:35;92275.50;;;5.76;56.70
11680;BME280;5896;42.686;23.142;2024-03-25T11:54:04;92273.06;;;6.20;58.14
11680;BME280;5896;42.686;23.142;2024-03-25T11:56:30;92269.97;;;6.61;56.90
11680;BME280;5896;42.686;23.142;2024-03-25T11:58:57;92266.66;;;6.54;56.84
11680;BME280;5896;42.686;23.142;2024-03-25T12:01:24;92276.88;;;6.61;56.27
11680;BME280;5896;42.686;23.142;2024-03-25T12:03:49;92278.59;;;6.67;56.71
11680;BME280;5896;42.686;23.142;2024-03-25T12:06:14;92279.75;;;7.07;58.52
11680;BME280;5896;42.686;23.142;2024-03-25T12:08:40;92279.34;;;7.59;56.59
11680;BME280;5896;42.686;23.142;2024-03-25T12:11:25;92274.06;;;7.24;55.05
11680;BME280;5896;42.686;23.142;2024-03-25T12:13:50;92273.66;;;7.99;52.62
11680;BME280;5896;42.686;23.142;2024-03-25T12:16:16;92272.16;;;7.49;52.32
11680;BME280;5896;42.686;23.142;2024-03-25T12:18:43;92265.44;;;8.09;53.69
11680;BME280;5896;42.686;23.142;2024-03-25T12:21:10;92250.72;;;8.27;49.62
11680;BME280;5896;42.686;23.142;2024-03-25T12:23:36;92259.31;;;9.15;49.30
11680;BME280;5896;42.686;23.142;2024-03-25T12:26:02;92255.69;;;9.40;50.29
11680;BME280;5896;42.686;23.142;2024-03-25T12:28:31;92255.53;;;9.18;47.10
11680;BME280;5896;42.686;23.142;2024-03-25T12:30:56;92252.34;;;8.75;49.02
11680;BME280;5896;42.686;23.142;2024-03-25T12:33:22;92256.69;;;7.98;49.31
11680;BME280;5896;42.686;23.142;2024-03-25T12:35:49;92258.97;;;7.46;47.87
11680;BME280;5896;42.686;23.142;2024-03-25T12:38:43;92260.53;;;8.07;49.16
11680;BME280;5896;42.686;23.142;2024-03-25T12:41:22;92267.63;;;7.93;48.52
11680;BME280;5896;42.686;23.142;2024-03-25T12:43:49;92271.97;;;7.81;50.45
11680;BME280;5896;42.686;23.142;2024-03-25T12:46:15;92271.84;;;7.57;48.55
11680;BME280;5896;42.686;23.142;2024-03-25T12:48:41;92269.91;;;7.71;47.90
11680;BME280;5896;42.686;23.142;2024-03-25T12:51:12;92268.03;;;7.78;48.54
11680;BME280;5896;42.686;23.142;2024-03-25T12:53:38;92267.94;;;7.55;48.86
11680;BME280;5896;42.686;23.142;2024-03-25T12:56:03;92263.31;;;7.45;51.15
11680;BME280;5896;42.686;23.142;2024-03-25T12:58:29;92272.69;;;7.40;51.45
11680;BME280;5896;42.686;23.142;2024-03-25T13:00:54;92258.91;;;7.34;49.87
11680;BME280;5896;42.686;23.142;2024-03-25T13:03:21;92277.63;;;7.53;50.46
11680;BME280;5896;42.686;23.142;2024-03-25T13:05:46;92269.91;;;7.71;50.83